Time;durP1;ratioP1;P1;durP2;ratioP2;P2;SDS_P1;SDS_P2;PMS_P1;PMS_P2;Temp;Humidity;BMP_temperature;BMP_pressure;BME280_temperature;BME280_humidity;BME280_pressure;Samples;Min_cycle;Max_cycle;Signal;HPM_P1;HPM_P2
2022/04/19 00:01:48;;;;;;;3.60;3.40;;;;;;;6.04;100.00;99114.09;5132517;27;20186;-55
2022/04/19 00:04:18;;;;;;;4.07;3.50;;;;;;;6.05;100.00;99120.97;5132702;27;20194;-55
2022/04/19 00:06:45;;;;;;;4.70;3.40;;;;;;;6.10;100.00;99116.56;5132833;27;20642;-55
2022/04/19 00:09:12;;;;;;;3.53;3.33;;;;;;;6.01;100.00;99115.88;5132573;27;20205;-54
2022/04/19 00:11:39;;;;;;;2.97;2.60;;;;;;;5.96;100.00;99115.13;5132369;27;20221;-54
2022/04/19 00:14:08;;;;;;;3.17;2.80;;;;;;;6.05;100.00;99117.53;5132649;27;20284;-55
2022/04/19 00:16:37;;;;;;;2.90;2.70;;;;;;;6.07;100.00;99118.38;5131950;27;20693;-54
2022/04/19 00:19:04;;;;;;;2.90;2.70;;;;;;;6.10;100.00;99115.72;5132991;27;20202;-55
2022/04/19 00:21:31;;;;;;;3.23;2.57;;;;;;;6.05;100.00;99120.97;5132589;27;20575;-55
2022/04/19 00:23:58;;;;;;;2.93;2.60;;;;;;;6.13;100.00;99116.50;5132332;27;20205;-54
2022/04/19 00:26:25;;;;;;;3.00;2.60;;;;;;;6.15;100.00;99108.78;5132527;27;20230;-54
2022/04/19 00:28:52;;;;;;;4.13;3.00;;;;;;;6.12;100.00;99114.81;5132271;27;20194;-56
2022/04/19 00:31:19;;;;;;;2.43;2.23;;;;;;;6.10;100.00;99116.56;5132153;27;20221;-54
2022/04/19 00:33:48;;;;;;;2.93;2.73;;;;;;;5.95;100.00;99108.25;5131208;27;20236;-55
2022/04/19 00:36:15;;;;;;;2.87;2.77;;;;;;;5.97;100.00;99114.25;5132105;27;20190;-54
2022/04/19 00:38:42;;;;;;;3.17;2.97;;;;;;;5.93;100.00;99112.59;5132280;27;20194;-56
2022/04/19 00:41:11;;;;;;;3.10;2.90;;;;;;;5.84;100.00;99104.09;5132162;27;20201;-55
2022/04/19 00:43:38;;;;;;;2.90;2.70;;;;;;;5.90;100.00;99115.19;5132036;27;20229;-55
2022/04/19 00:46:05;;;;;;;3.23;2.50;;;;;;;5.88;100.00;99110.06;5132246;27;20298;-53
2022/04/19 00:48:32;;;;;;;3.07;2.87;;;;;;;5.90;100.00;99108.31;5131684;27;20229;-55
2022/04/19 00:51:01;;;;;;;3.17;2.97;;;;;;;5.90;100.00;99099.75;5131862;27;20198;-53
2022/04/19 00:53:29;;;;;;;2.80;2.60;;;;;;;5.94;100.00;99109.13;5131760;27;20221;-54
2022/04/19 00:55:56;;;;;;;3.40;2.93;;;;;;;5.96;100.00;99109.97;5131647;27;20247;-54
2022/04/19 00:58:23;;;;;;;2.90;2.70;;;;;;;5.91;100.00;99101.44;5131782;27;20200;-54
2022/04/19 01:00:51;;;;;;;3.57;2.80;;;;;;;5.94;100.00;99106.56;5131761;27;20587;-54
2022/04/19 01:03:18;;;;;;;2.93;2.63;;;;;;;5.89;100.00;99083.44;5131587;27;20284;-54
2022/04/19 01:05:47;;;;;;;2.80;2.60;;;;;;;6.08;100.00;99100.31;5131655;27;20247;-54
2022/04/19 01:08:16;;;;;;;2.93;2.73;;;;;;;6.12;100.00;99093.34;5131586;27;20229;-55
2022/04/19 01:10:45;;;;;;;3.53;3.00;;;;;;;5.91;100.00;99101.44;5131433;27;20220;-55
2022/04/19 01:13:18;;;;;;;2.70;2.50;;;;;;;5.84;100.00;99093.81;5131358;27;20228;-53
2022/04/19 01:15:46;;;;;;;3.50;2.70;;;;;;;6.01;100.00;99097.84;5131584;27;20208;-54
2022/04/19 01:18:14;;;;;;;5.97;2.60;;;;;;;6.01;100.00;99097.84;5131353;27;20197;-55
2022/04/19 01:20:41;;;;;;;2.90;2.70;;;;;;;6.11;100.00;99104.53;5131441;27;20204;-55
2022/04/19 01:23:10;;;;;;;2.77;2.57;;;;;;;6.04;100.00;99096.06;5131235;27;20186;-55
2022/04/19 01:25:37;;;;;;;2.47;2.27;;;;;;;6.03;100.00;99103.81;5131531;27;20586;-55
2022/04/19 01:28:04;;;;;;;2.80;2.60;;;;;;;6.01;100.00;99103.00;5131375;27;20678;-55
2022/04/19 01:30:33;;;;;;;3.60;2.50;;;;;;;6.03;100.00;99098.66;5131430;27;20201;-56
2022/04/19 01:33:02;;;;;;;2.73;2.60;;;;;;;6.10;100.00;99095.09;5131031;27;20221;-55
2022/04/19 01:35:29;;;;;;;3.37;3.17;;;;;;;6.24;100.00;99097.44;5131155;27;20233;-55
2022/04/19 01:37:56;;;;;;;3.33;3.00;;;;;;;6.24;100.00;99100.00;5131220;27;20194;-54
2022/04/19 01:40:24;;;;;;;3.03;2.87;;;;;;;6.25;100.00;99094.00;5131085;27;20194;-54
2022/04/19 01:42:53;;;;;;;3.50;3.20;;;;;;;6.19;100.00;99090.66;5130787;27;20190;-55
2022/04/19 01:45:23;;;;;;;3.73;3.50;;;;;;;6.21;100.00;99092.38;5130754;27;20193;-55
2022/04/19 01:47:51;;;;;;;3.70;3.43;;;;;;;6.15;100.00;99077.84;5130760;27;20588;-54
2022/04/19 01:50:19;;;;;;;3.80;3.50;;;;;;;6.23;100.00;99088.84;5130989;28;20668;-53
2022/04/19 01:52:47;;;;;;;3.67;3.40;;;;;;;6.18;100.00;99088.97;5131046;28;20228;-55
2022/04/19 01:55:16;;;;;;;4.60;4.20;;;;;;;6.22;100.00;99089.72;5130437;28;20186;-54
2022/04/19 01:57:46;;;;;;;3.87;3.57;;;;;;;6.21;100.00;99082.06;5130438;27;20215;-54
2022/04/19 02:00:15;;;;;;;3.53;3.33;;;;;;;6.10;100.00;99082.22;5128227;28;20560;-54
2022/04/19 02:02:43;;;;;;;5.27;3.90;;;;;;;6.12;100.00;99085.63;5130268;27;20193;-55
2022/04/19 02:05:10;;;;;;;3.60;3.40;;;;;;;6.07;100.00;99079.72;5130964;27;20198;-56
2022/04/19 02:07:39;;;;;;;4.20;3.80;;;;;;;5.95;100.00;99085.09;5131060;27;20198;-54
2022/04/19 02:10:08;;;;;;;4.13;3.70;;;;;;;6.00;100.00;99083.25;5130734;27;20194;-55
2022/04/19 02:12:35;;;;;;;4.37;3.97;;;;;;;6.05;100.00;99076.31;5130757;27;20218;-55
2022/04/19 02:15:04;;;;;;;3.47;3.17;;;;;;;6.03;100.00;99076.34;5130777;27;20224;-55
2022/04/19 02:17:30;;;;;;;3.57;3.37;;;;;;;6.08;100.00;99071.13;5130683;27;20284;-55
2022/04/19 02:20:01;;;;;;;4.00;2.97;;;;;;;6.16;100.00;99074.41;5130900;27;20194;-56
2022/04/19 02:22:28;;;;;;;3.83;3.53;;;;;;;6.13;100.00;99072.72;5130791;27;20227;-53
2022/04/19 02:24:57;;;;;;;2.90;2.70;;;;;;;6.20;100.00;99076.06;5130471;27;20201;-54
2022/04/19 02:27:24;;;;;;;3.37;3.07;;;;;;;6.25;100.00;99075.94;5130686;27;20670;-54
2022/04/19 02:29:51;;;;;;;2.90;2.70;;;;;;;6.20;100.00;99078.63;5130367;27;20209;-55
2022/04/19 02:32:19;;;;;;;3.40;3.10;;;;;;;6.16;100.00;99071.81;5130617;27;20217;-53
2022/04/19 02:34:47;;;;;;;3.13;2.93;;;;;;;6.10;100.00;99066.75;5130903;27;20576;-53
2022/04/19 02:37:14;;;;;;;4.00;3.30;;;;;;;6.07;100.00;99069.41;5130631;27;20665;-53
2022/04/19 02:39:41;;;;;;;2.90;2.70;;;;;;;6.17;100.00;99074.38;5130686;27;20194;-54
2022/04/19 02:42:08;;;;;;;3.27;3.07;;;;;;;6.16;100.00;99079.53;5130419;27;20201;-54
2022/04/19 02:44:36;;;;;;;4.43;3.33;;;;;;;6.18;100.00;99083.81;5130432;27;20290;-53
2022/04/19 02:47:04;;;;;;;3.23;2.93;;;;;;;6.22;100.00;99082.00;5130442;27;20289;-55
2022/04/19 02:49:33;;;;;;;3.30;3.10;;;;;;;6.25;100.00;99078.53;5130179;27;20240;-55
2022/04/19 02:52:00;;;;;;;3.43;3.20;;;;;;;6.24;100.00;99072.53;5130087;27;20200;-55
2022/04/19 02:54:27;;;;;;;3.37;3.07;;;;;;;6.23;100.00;99069.97;5130481;27;20190;-54
2022/04/19 02:56:54;;;;;;;3.07;2.80;;;;;;;6.15;100.00;99080.41;5131921;27;20287;-55
2022/04/19 02:59:21;;;;;;;4.40;3.60;;;;;;;6.13;100.00;99088.19;5134281;27;20232;-55
2022/04/19 03:01:48;;;;;;;3.13;2.93;;;;;;;6.12;100.00;99078.75;5134058;27;20201;-55
2022/04/19 03:04:15;;;;;;;3.47;3.17;;;;;;;6.14;100.00;99077.00;5134062;27;20202;-54
2022/04/19 03:06:44;;;;;;;3.47;3.17;;;;;;;6.15;100.00;99081.28;5133907;27;20562;-54
2022/04/19 03:09:11;;;;;;;3.07;2.87;;;;;;;6.18;100.00;99082.97;5133721;27;20198;-53
2022/04/19 03:11:37;;;;;;;3.50;3.13;;;;;;;6.18;100.00;99088.09;5133644;27;20229;-53
2022/04/19 03:14:07;;;;;;;4.33;3.30;;;;;;;6.14;100.00;99091.59;5133462;27;20229;-54
2022/04/19 03:16:34;;;;;;;3.67;3.37;;;;;;;6.03;100.00;99086.66;5124497;27;20705;-54
2022/04/19 03:19:01;;;;;;;3.60;3.30;;;;;;;6.05;100.00;99084.91;5112181;28;20214;-54
2022/04/19 03:21:28;;;;;;;6.20;3.30;;;;;;;6.09;100.00;99088.28;5112733;28;20286;-54
2022/04/19 03:29:25;;;;;;;4.23;3.93;;;;;;;6.26;100.00;99093.97;5127923;27;20221;-53
2022/04/19 03:31:53;;;;;;;5.73;3.93;;;;;;;6.24;100.00;99093.13;5131359;27;20228;-54
2022/04/19 03:34:20;;;;;;;4.00;3.70;;;;;;;6.27;100.00;99093.09;5131408;27;20770;-53
2022/04/19 03:36:47;;;;;;;4.00;3.70;;;;;;;6.21;100.00;99093.19;5131477;27;20237;-53
2022/04/19 03:39:15;;;;;;;7.53;3.93;;;;;;;6.21;100.00;99095.75;5130817;27;20226;-54
2022/04/19 03:41:42;;;;;;;4.10;3.80;;;;;;;6.17;100.00;99096.72;5137498;27;20249;-54
2022/04/19 03:44:10;;;;;;;4.60;4.07;;;;;;;6.14;100.00;99091.59;5142277;27;20227;-54
2022/04/19 03:47:07;;;;;;;8.07;5.33;;;;;;;6.22;100.00;99099.19;5130237;27;20223;-55
2022/04/19 03:49:24;;;;;;;4.87;4.30;;;;;;;6.16;100.00;99088.13;5131019;27;20226;-53
2022/04/19 03:51:51;;;;;;;4.40;4.10;;;;;;;6.29;100.00;99096.50;5132348;27;20194;-53
2022/04/19 03:54:20;;;;;;;4.50;4.20;;;;;;;6.29;100.00;99090.50;5131111;27;20213;-54
2022/04/19 03:56:46;;;;;;;5.37;4.87;;;;;;;6.34;100.00;99094.66;5131491;27;20190;-54
2022/04/19 03:59:13;;;;;;;6.20;5.60;;;;;;;6.23;100.00;99095.72;5131124;27;20198;-55
2022/04/19 04:01:40;;;;;;;8.50;6.80;;;;;;;6.19;100.00;99094.97;5128767;27;20198;-55
2022/04/19 04:04:07;;;;;;;17.30;10.93;;;;;;;6.19;100.00;99092.38;5131497;27;20662;-54
2022/04/19 04:06:35;;;;;;;22.03;13.00;;;;;;;6.19;100.00;99093.25;5131393;27;20208;-54
2022/04/19 04:09:02;;;;;;;18.17;11.87;;;;;;;6.11;100.00;99092.50;5131396;27;20280;-55
2022/04/19 04:11:30;;;;;;;14.40;9.80;;;;;;;6.28;100.00;99099.09;5130901;27;20205;-54
2022/04/19 04:13:57;;;;;;;13.17;8.07;;;;;;;6.26;100.00;99101.69;5130455;27;20627;-54
2022/04/19 04:16:24;;;;;;;10.90;7.50;;;;;;;6.25;100.00;99101.72;5131344;27;20198;-54
2022/04/19 04:18:51;;;;;;;6.77;6.27;;;;;;;6.27;100.00;99105.97;5131495;27;20637;-54
2022/04/19 04:21:18;;;;;;;7.53;5.00;;;;;;;6.32;100.00;99111.88;5131539;27;20204;-55
2022/04/19 04:23:45;;;;;;;6.20;5.37;;;;;;;6.42;100.00;99121.16;5131385;27;20190;-54
2022/04/19 04:26:11;;;;;;;6.43;5.83;;;;;;;6.42;100.00;99116.00;5131403;27;20275;-55
2022/04/19 04:28:40;;;;;;;8.80;5.60;;;;;;;6.44;100.00;99116.81;5130699;27;20494;-54
2022/04/19 04:31:07;;;;;;;5.50;4.67;;;;;;;6.45;100.00;99120.25;5130218;27;20275;-54
2022/04/19 04:33:34;;;;;;;5.63;5.23;;;;;;;6.45;100.00;99120.25;5131265;27;20218;-55
2022/04/19 04:36:01;;;;;;;5.07;4.70;;;;;;;6.32;100.00;99123.94;5130249;27;20194;-55
2022/04/19 04:38:28;;;;;;;5.83;5.23;;;;;;;6.48;100.00;99133.09;5131669;27;20284;-55
2022/04/19 04:40:55;;;;;;;5.57;5.17;;;;;;;6.54;100.00;99131.25;5131854;27;20583;-55
2022/04/19 04:43:21;;;;;;;6.23;5.17;;;;;;;6.50;100.00;99132.19;5131956;27;20194;-54
2022/04/19 04:49:35;;;;;;;6.60;5.20;;;;;;;6.37;100.00;99135.84;5131951;27;20193;-54
2022/04/19 04:51:21;;;;;;;8.20;6.47;;;;;;;6.40;100.00;99137.53;5132037;27;20204;-54
2022/04/19 04:53:48;;;;;;;6.40;5.90;;;;;;;6.40;100.00;99143.53;5131489;27;20228;-54
2022/04/19 04:56:15;;;;;;;6.37;5.87;;;;;;;6.41;100.00;99146.97;5131615;27;20194;-54
2022/04/19 04:58:42;;;;;;;5.53;5.13;;;;;;;6.36;100.00;99144.47;5131929;27;20589;-55
2022/04/19 05:01:10;;;;;;;5.70;5.20;;;;;;;6.44;100.00;99141.75;5131531;27;20190;-54
2022/04/19 05:03:37;;;;;;;6.03;5.53;;;;;;;6.51;100.00;99149.34;5130835;27;20222;-54
2022/04/19 05:06:04;;;;;;;7.60;5.70;;;;;;;6.62;100.00;99141.41;5130872;27;20681;-52
2022/04/19 05:08:31;;;;;;;7.97;6.03;;;;;;;6.54;100.00;99145.88;5130892;27;20281;-54
2022/04/19 05:10:57;;;;;;;4.83;4.43;;;;;;;6.50;100.00;99152.81;5131065;27;20582;-53
2022/04/19 05:13:26;;;;;;;5.13;4.80;;;;;;;6.29;100.00;99119.69;5131359;27;20305;-54
2022/04/19 05:15:53;;;;;;;5.20;4.33;;;;;;;6.39;100.00;99154.72;5130805;27;20190;-55
2022/04/19 05:18:21;;;;;;;4.47;4.13;;;;;;;6.29;100.00;99153.19;5130943;27;20628;-55
2022/04/19 05:20:48;;;;;;;4.10;3.80;;;;;;;6.31;100.00;99153.16;5130471;27;20201;-55
2022/04/19 05:23:15;;;;;;;4.63;3.40;;;;;;;6.09;100.00;99124.34;5131107;27;20661;-54
2022/04/19 05:25:42;;;;;;;3.47;3.27;;;;;;;6.27;100.00;99149.78;5130555;27;20186;-53
2022/04/19 05:28:09;;;;;;;5.43;4.00;;;;;;;6.38;100.00;99150.44;5130785;27;20212;-53
2022/04/19 05:30:36;;;;;;;4.47;3.60;;;;;;;6.44;100.00;99155.47;5130510;27;20279;-54
2022/04/19 05:33:03;;;;;;;3.80;3.00;;;;;;;6.40;100.00;99148.69;5130941;27;20232;-54
2022/04/19 05:35:33;;;;;;;4.27;3.97;;;;;;;6.31;100.00;99148.88;5130829;27;20191;-54
2022/04/19 05:37:59;;;;;;;4.43;4.07;;;;;;;6.41;100.00;99142.66;5131148;27;20586;-54
2022/04/19 05:40:27;;;;;;;3.40;3.10;;;;;;;6.38;100.00;99144.44;5131159;27;20194;-54
2022/04/19 05:42:54;;;;;;;3.40;3.20;;;;;;;6.45;100.00;99154.59;5131055;27;20666;-54
2022/04/19 05:45:22;;;;;;;4.53;3.93;;;;;;;6.61;100.00;99156.91;5130756;27;20254;-54
2022/04/19 05:47:48;;;;;;;5.13;3.70;;;;;;;6.74;100.00;99158.38;5130678;27;20208;-52
2022/04/19 05:50:15;;;;;;;3.83;3.60;;;;;;;6.93;100.00;99154.56;5130709;27;20212;-53
2022/04/19 05:52:44;;;;;;;4.13;3.00;;;;;;;7.02;100.00;99141.47;5130744;27;20198;-53
2022/04/19 05:55:10;;;;;;;4.03;3.73;;;;;;;7.13;100.00;99157.59;5130570;27;20193;-54
2022/04/19 05:57:37;;;;;;;6.20;4.17;;;;;;;7.22;100.00;99167.72;5130896;27;20582;-54
2022/04/19 06:00:06;;;;;;;4.97;4.27;;;;;;;7.33;100.00;99167.50;5130692;27;20200;-55
2022/04/19 06:05:17;;;;;;;4.17;3.10;;;;;;;7.40;100.00;99175.97;5130756;28;20193;-55
2022/04/19 06:07:46;;;;;;;4.83;4.43;;;;;;;7.42;100.00;99179.38;5130680;27;20198;-54
2022/04/19 06:10:14;;;;;;;6.47;3.53;;;;;;;7.37;100.00;99183.78;5130408;28;20579;-55
2022/04/19 06:12:41;;;;;;;6.23;3.90;;;;;;;7.43;100.00;99184.50;5130696;27;20205;-54
2022/04/19 06:15:10;;;;;;;6.03;4.17;;;;;;;7.40;100.00;99168.22;5129741;27;20194;-54
2022/04/19 06:17:38;;;;;;;5.13;4.63;;;;;;;7.63;100.00;99181.47;5130552;27;20190;-54
2022/04/19 06:20:06;;;;;;;5.80;4.23;;;;;;;7.56;100.00;99187.69;5130449;27;20253;-54
2022/04/19 06:22:34;;;;;;;7.37;4.10;;;;;;;7.59;100.00;99192.75;5130708;27;20688;-55
2022/04/19 06:25:02;;;;;;;3.70;3.40;;;;;;;7.68;100.00;99191.69;5130186;27;20190;-54
2022/04/19 06:27:29;;;;;;;4.67;3.47;;;;;;;7.64;100.00;99196.09;5130835;27;20196;-53
2022/04/19 06:29:58;;;;;;;3.43;3.13;;;;;;;7.53;100.00;99185.16;5129875;27;20666;-54
2022/04/19 06:32:25;;;;;;;3.67;2.93;;;;;;;7.61;100.00;99189.25;5133254;27;20249;-54
2022/04/19 06:34:53;;;;;;;4.73;3.03;;;;;;;7.70;100.00;99195.09;5134411;27;20217;-55
2022/04/19 06:37:22;;;;;;;4.13;3.80;;;;;;;7.88;100.00;99189.53;5134440;27;20665;-55
2022/04/19 06:39:49;;;;;;;4.00;3.40;;;;;;;7.95;100.00;99194.50;5134382;27;20194;-55
2022/04/19 06:42:18;;;;;;;3.20;3.00;;;;;;;7.95;100.00;99194.50;5134748;27;20198;-54
2022/04/19 06:44:45;;;;;;;4.70;3.43;;;;;;;8.11;100.00;99199.34;5134143;27;20722;-55
2022/04/19 06:47:12;;;;;;;4.67;3.30;;;;;;;8.05;100.00;99189.13;5134243;27;20190;-53
2022/04/19 06:49:39;;;;;;;3.43;3.13;;;;;;;7.96;100.00;99191.03;5133956;27;20228;-54
2022/04/19 06:52:08;;;;;;;3.70;3.37;;;;;;;8.14;100.00;99199.22;5134051;27;20197;-54
2022/04/19 06:54:34;;;;;;;3.83;3.53;;;;;;;8.31;100.00;99210.03;5133843;27;20217;-55
2022/04/19 06:57:01;;;;;;;4.23;3.30;;;;;;;8.46;100.00;99211.44;5134148;27;20198;-54
2022/04/19 06:59:30;;;;;;;4.33;3.50;;;;;;;8.33;100.00;99205.72;5134317;27;20197;-54
2022/04/19 07:01:57;;;;;;;4.27;3.83;;;;;;;8.22;100.00;99212.84;5133533;27;20701;-55
2022/04/19 07:04:24;;;;;;;3.83;3.53;;;;;;;8.31;100.00;99204.88;5133357;27;20212;-54
2022/04/19 07:06:51;;;;;;;4.40;3.80;;;;;;;8.34;100.00;99212.59;5133201;27;20208;-55
2022/04/19 07:09:18;;;;;;;3.73;3.30;;;;;;;8.21;100.00;99211.16;5133382;27;20202;-55
2022/04/19 07:11:45;;;;;;;3.13;2.93;;;;;;;8.16;100.00;99213.81;5134067;27;20198;-55
2022/04/19 07:14:12;;;;;;;4.50;3.87;;;;;;;8.07;100.00;99211.47;5133583;27;20345;-53
2022/04/19 07:16:40;;;;;;;5.37;4.47;;;;;;;8.16;100.00;99210.41;5133787;27;20209;-54
2022/04/19 07:19:07;;;;;;;4.03;3.20;;;;;;;7.90;100.00;99192.94;5133460;27;20288;-54
2022/04/19 07:27:03;;;;;;;8.03;4.60;;;;;;;8.13;100.00;99203.56;5133017;27;20193;-54
2022/04/19 07:29:30;;;;;;;3.33;3.13;;;;;;;8.20;100.00;99219.78;5133029;27;20672;-54
2022/04/19 07:31:58;;;;;;;3.80;3.40;;;;;;;8.34;100.00;99207.41;5132476;27;20625;-53
2022/04/19 07:34:25;;;;;;;3.73;3.53;;;;;;;8.58;100.00;99218.84;5132451;27;20213;-54
2022/04/19 07:36:56;;;;;;;3.80;3.50;;;;;;;8.60;100.00;99217.94;5132642;27;20204;-55
2022/04/19 07:39:23;;;;;;;3.90;3.47;;;;;;;8.64;100.00;99221.31;5133087;27;20246;-54
2022/04/19 07:41:50;;;;;;;3.83;3.63;;;;;;;8.70;100.00;99221.97;5132766;27;20716;-54
2022/04/19 07:44:17;;;;;;;4.77;3.40;;;;;;;8.91;100.00;99219.75;5133013;27;20194;-55
2022/04/19 07:46:44;;;;;;;3.97;3.67;;;;;;;8.85;100.00;99204.34;5132640;27;20230;-55
2022/04/19 07:49:12;;;;;;;5.83;3.87;;;;;;;8.61;100.00;99224.81;5132540;27;20226;-54
2022/04/19 07:51:39;;;;;;;3.87;3.57;;;;;;;8.57;100.00;99214.59;5132755;27;20228;-54
2022/04/19 07:54:06;;;;;;;5.23;3.57;;;;;;;8.68;100.00;99203.09;5132912;27;20228;-54
2022/04/19 07:56:33;;;;;;;5.23;4.67;;;;;;;8.58;100.00;99211.94;5132932;27;20194;-54
2022/04/19 07:59:00;;;;;;;8.77;6.37;;;;;;;8.70;100.00;99211.63;5132930;27;20598;-54
2022/04/19 08:01:27;;;;;;;12.43;7.87;;;;;;;9.09;100.00;99216.66;5133232;27;20638;-54
2022/04/19 08:03:54;;;;;;;10.00;6.07;;;;;;;9.43;100.00;99211.34;5132961;27;20194;-55
2022/04/19 08:06:23;;;;;;;5.27;4.63;;;;;;;9.65;99.25;99212.44;5132780;27;20201;-54
2022/04/19 08:08:50;;;;;;;5.03;4.57;;;;;;;9.86;97.26;99215.25;5132878;27;20642;-53
2022/04/19 08:11:17;;;;;;;4.83;4.43;;;;;;;10.03;97.41;99218.19;5132133;27;20212;-54
2022/04/19 08:13:44;;;;;;;4.43;3.77;;;;;;;10.07;95.10;99217.19;5132430;27;20218;-53
2022/04/19 08:16:11;;;;;;;3.97;3.60;;;;;;;10.67;93.20;99224.75;5132344;27;20293;-53
2022/04/19 08:18:37;;;;;;;14.27;5.40;;;;;;;11.02;90.72;99215.75;5132866;27;20459;-53
2022/04/19 08:21:05;;;;;;;4.87;4.10;;;;;;;11.09;90.61;99225.00;5132376;27;20197;-54
2022/04/19 08:23:33;;;;;;;4.30;4.00;;;;;;;11.56;91.21;99218.09;5131898;27;20197;-54
2022/04/19 08:26:00;;;;;;;9.50;4.10;;;;;;;12.25;87.75;99213.69;5131578;27;20288;-54
2022/04/19 08:28:27;;;;;;;3.70;3.40;;;;;;;12.48;82.05;99223.16;5132061;27;20687;-53
2022/04/19 08:30:54;;;;;;;4.10;3.17;;;;;;;12.33;80.73;99216.81;5132121;27;20473;-54
2022/04/19 08:33:21;;;;;;;4.07;3.77;;;;;;;12.79;81.41;99214.06;5132358;27;20198;-54
2022/04/19 08:35:48;;;;;;;3.87;3.57;;;;;;;14.32;74.39;99214.88;5131985;27;20214;-55
2022/04/19 08:38:15;;;;;;;3.57;3.17;;;;;;;15.16;70.17;99211.47;5132036;27;20717;-54
2022/04/19 08:40:43;;;;;;;4.00;3.70;;;;;;;15.67;67.14;99217.50;5131522;27;20643;-54
2022/04/19 08:43:11;;;;;;;5.53;4.07;;;;;;;15.13;67.30;99211.63;5131755;27;20576;-55
2022/04/19 08:45:38;;;;;;;3.90;3.63;;;;;;;14.23;70.76;99211.81;5131626;27;20650;-54
2022/04/19 08:48:09;;;;;;;4.17;3.87;;;;;;;13.91;71.69;99209.00;5131232;27;20186;-54
2022/04/19 08:50:38;;;;;;;4.90;4.53;;;;;;;13.44;72.13;99211.19;5131941;27;20657;-55
2022/04/19 08:58:34;;;;;;;5.07;4.60;;;;;;;12.44;77.97;99200.75;5131647;27;20637;-55
2022/04/19 09:01:01;;;;;;;4.40;4.10;;;;;;;12.36;77.27;99201.06;5131364;27;20198;-54
2022/04/19 09:03:28;;;;;;;5.37;4.40;;;;;;;12.24;78.11;99198.13;5131337;27;20200;-55
2022/04/19 09:05:55;;;;;;;4.47;4.23;;;;;;;12.33;80.01;99197.75;5131092;27;20194;-54
2022/04/19 09:08:22;;;;;;;4.67;4.37;;;;;;;12.33;78.35;99202.94;5131505;27;20591;-54
2022/04/19 09:10:51;;;;;;;4.50;4.20;;;;;;;12.75;76.10;99189.91;5131368;27;20204;-54
2022/04/19 09:13:23;;;;;;;3.87;3.57;;;;;;;13.91;73.36;99197.72;5130606;27;20194;-55
2022/04/19 09:15:53;;;;;;;3.60;3.40;;;;;;;15.50;66.17;99186.97;5130997;27;20220;-54
2022/04/19 09:18:26;;;;;;;4.03;3.73;;;;;;;17.37;63.02;99199.75;5128015;27;20200;-55
2022/04/19 09:20:54;;;;;;;3.73;3.43;;;;;;;18.16;53.12;99198.31;5130572;27;20194;-56
2022/04/19 09:23:22;;;;;;;3.80;3.60;;;;;;;18.21;50.59;99199.69;5128224;27;20578;-55
2022/04/19 09:25:54;;;;;;;3.73;3.50;;;;;;;17.76;52.29;99185.09;5130435;27;20817;-55
2022/04/19 09:28:22;;;;;;;3.80;3.60;;;;;;;16.87;55.38;99188.84;5127988;27;20182;-56
2022/04/19 09:30:52;;;;;;;4.67;4.33;;;;;;;15.50;57.92;99188.75;5130242;27;20206;-56
2022/04/19 09:33:20;;;;;;;4.23;3.43;;;;;;;14.26;60.44;99188.19;5131111;27;20193;-55
2022/04/19 09:35:50;;;;;;;3.60;3.30;;;;;;;15.40;57.88;99190.19;5130962;27;20217;-56
2022/04/19 09:38:17;;;;;;;2.50;2.40;;;;;;;16.13;54.81;99186.16;5130610;27;20289;-55
2022/04/19 09:40:46;;;;;;;3.30;3.10;;;;;;;15.14;56.48;99188.94;5130920;27;20208;-54
2022/04/19 09:43:16;;;;;;;2.60;2.50;;;;;;;14.42;58.56;99190.03;5128696;27;20592;-56
2022/04/19 09:45:53;;;;;;;3.23;3.03;;;;;;;13.60;61.99;99187.88;5128278;27;20375;-56
2022/04/19 09:48:21;;;;;;;3.30;3.20;;;;;;;12.78;64.16;99179.34;5129678;27;20225;-54
2022/04/19 09:50:52;;;;;;;4.00;3.70;;;;;;;11.85;67.63;99183.19;5130737;27;20587;-54
2022/04/19 09:53:21;;;;;;;3.83;3.53;;;;;;;11.70;69.31;99190.72;5130587;28;20251;-54
2022/04/19 09:55:49;;;;;;;4.33;3.50;;;;;;;11.73;69.15;99178.47;5130140;27;20216;-55
2022/04/19 09:58:17;;;;;;;3.70;3.47;;;;;;;12.13;68.74;99180.34;5129945;27;20634;-54
2022/04/19 10:00:45;;;;;;;3.90;3.50;;;;;;;12.48;67.72;99176.31;5130236;28;20197;-54
2022/04/19 10:08:45;;;;;;;21.33;7.43;;;;;;;16.65;54.19;99168.31;5133648;27;20274;-54
2022/04/19 10:11:12;;;;;;;16.07;5.20;;;;;;;17.35;50.91;99169.28;5132027;27;20628;-54
2022/04/19 10:13:41;;;;;;;9.37;5.20;;;;;;;18.56;49.30;99157.94;5134125;27;20194;-55
2022/04/19 10:16:12;;;;;;;3.83;3.60;;;;;;;19.35;45.42;99164.81;5134241;27;20600;-55
2022/04/19 10:18:39;;;;;;;4.88;3.80;;;;;;;19.69;44.36;99158.00;5134175;27;20710;-54
2022/04/19 10:21:10;;;;;;;2.88;2.78;;;;;;;19.06;45.28;99158.94;5134436;27;20292;-54
2022/04/19 10:23:38;;;;;;;2.85;2.75;;;;;;;18.44;46.70;99156.13;5134615;27;20198;-54
2022/04/19 10:26:20;;;;;;;3.13;2.92;;;;;;;17.16;47.97;99161.69;5134469;27;20200;-54
2022/04/19 10:28:50;;;;;;;4.53;3.37;;;;;;;15.92;51.37;99162.88;5134677;27;20204;-53
2022/04/19 10:31:27;;;;;;;4.10;3.80;;;;;;;14.95;53.82;99164.69;5134183;27;20224;-53
2022/04/19 10:33:54;;;;;;;5.47;4.03;;;;;;;14.44;54.44;99156.84;5134391;27;20193;-53
2022/04/19 10:36:24;;;;;;;5.50;3.00;;;;;;;14.11;55.42;99148.88;5134210;27;20325;-54
2022/04/19 10:39:22;;;;;;;3.53;3.27;;;;;;;14.07;56.62;99149.09;5134360;27;20242;-53
2022/04/19 10:41:53;;;;;;;2.60;2.50;;;;;;;13.62;58.34;99144.31;5133995;27;20750;-54
2022/04/19 10:44:29;;;;;;;4.07;3.77;;;;;;;13.61;58.91;99143.47;5134193;27;20725;-55
2022/04/19 10:47:14;;;;;;;2.60;2.50;;;;;;;13.59;57.26;99145.31;5113505;28;20644;-54
2022/04/19 10:50:05;;;;;;;3.60;3.03;;;;;;;13.63;57.35;99144.25;5113324;28;20310;-55
2022/04/19 10:52:51;;;;;;;3.00;2.80;;;;;;;13.65;56.48;99138.97;5113427;28;20290;-55
2022/04/19 10:55:23;;;;;;;10.50;7.77;;;;;;;13.70;58.16;99136.97;5127400;27;20297;-55
2022/04/19 10:58:09;;;;;;;2.83;2.67;;;;;;;13.64;57.04;99132.06;5133870;27;20198;-54
2022/04/19 11:01:00;;;;;;;4.17;3.37;;;;;;;13.76;55.75;99134.94;5133647;27;20202;-53
2022/04/19 11:03:57;;;;;;;3.43;3.23;;;;;;;13.61;57.09;99129.59;5134099;27;20194;-52
2022/04/19 11:06:38;;;;;;;7.00;5.50;;;;;;;13.40;57.07;99139.28;5090532;28;20278;-54
2022/04/19 11:09:16;;;;;;;4.40;4.03;;;;;;;13.08;58.32;99136.34;5127438;27;20293;-53
2022/04/19 11:11:49;;;;;;;4.57;3.20;;;;;;;12.71;60.20;99133.66;5133501;27;20194;-54
2022/04/19 11:14:20;;;;;;;3.57;3.27;;;;;;;12.50;61.20;99134.59;5133598;27;20190;-53
2022/04/19 11:16:51;;;;;;;4.03;3.83;;;;;;;12.26;61.86;99128.66;5132883;27;20193;-53
2022/04/19 11:19:20;;;;;;;5.10;4.27;;;;;;;12.35;62.34;99130.88;5133283;27;20591;-53
2022/04/19 11:21:49;;;;;;;89.03;55.13;;;;;;;12.26;62.00;99124.31;5133494;27;20657;-53
2022/04/19 11:24:49;;;;;;;14.10;10.03;;;;;;;12.28;62.77;99130.28;5132777;27;20209;-53
2022/04/19 11:27:16;;;;;;;6.30;5.80;;;;;;;12.45;62.44;99123.50;5131972;27;20194;-53
2022/04/19 11:29:50;;;;;;;9.07;5.63;;;;;;;12.56;62.59;99129.09;5133159;27;20198;-53
2022/04/19 11:32:26;;;;;;;3.90;3.60;;;;;;;12.29;61.53;99123.34;5133168;27;20201;-53
2022/04/19 11:35:01;;;;;;;4.07;3.67;;;;;;;12.22;62.29;99109.72;5132589;27;20243;-54
2022/04/19 11:37:30;;;;;;;4.47;4.17;;;;;;;12.44;61.95;99124.41;5130947;27;20280;-53
2022/04/19 11:48:19;;;;;;;17.73;4.57;;;;;;;12.68;59.93;99131.19;5132048;27;20229;-53
2022/04/19 11:50:47;;;;;;;11.03;4.80;;;;;;;12.51;62.88;99126.72;5132900;27;20202;-53
2022/04/19 11:53:18;;;;;;;5.20;4.27;;;;;;;12.36;63.12;99124.75;5132727;27;20653;-53
2022/04/19 11:55:52;;;;;;;5.10;4.70;;;;;;;12.23;64.63;99132.22;5132782;27;20218;-53
2022/04/19 11:58:22;;;;;;;4.83;4.43;;;;;;;12.15;64.06;99121.31;5132403;27;20198;-53
2022/04/19 12:00:58;;;;;;;4.50;4.20;;;;;;;12.18;64.46;99125.53;5132274;27;20209;-53
2022/04/19 12:03:28;;;;;;;4.43;4.17;;;;;;;12.16;65.35;99115.19;5130420;27;20189;-54
2022/04/19 12:05:55;;;;;;;5.53;4.60;;;;;;;12.20;66.66;99123.69;5132095;27;20325;-53
2022/04/19 12:08:33;;;;;;;5.50;4.63;;;;;;;12.22;66.71;99121.88;5129183;27;20693;-53
2022/04/19 12:11:04;;;;;;;4.33;4.03;;;;;;;12.26;65.85;99121.69;5131654;27;20703;-53
2022/04/19 12:13:31;;;;;;;4.37;3.93;;;;;;;12.27;65.58;99130.34;5131659;27;20619;-53
2022/04/19 12:16:00;;;;;;;3.57;3.00;;;;;;;12.18;64.13;99131.59;5131420;27;20217;-53